Maeva Solo Sailor — FL2998 — position and weather

sailwx.info

Track history (hours):
 
Tides and Currents Weather Stations Pressure Air Temp Water Temp Dewpoint Dewpoint Depression Visibility Wind Speed Wind Dir Waves Ship Positions

Maeva Solo Sailor

Last reported at 2018-Jun-19 19:04 UTC. Time now 2018-Jun-19 20:20 UTC.
Position N 48°44' W 002°34'.

Length 9 m.

Type: Sailing vessel. MMSI: 227165040.

Date/timePositionNaut miles runAvg speedWind from/ knotsBaromVisibWave heightAir tempDewpointWater temp
2018-Jun-19 19:04N 48°44' W 002°34'1 5.9
2018-Jun-19 18:55N 48°45' W 002°34'3 5.8
2018-Jun-19 18:28N 48°47' W 002°32'3 5.6
2018-Jun-19 18:00N 48°49' W 002°30'19 0.6
2018-Jun-18 12:31N 48°46' W 002°02'0 4.6
2018-Jun-18 12:28N 48°46' W 002°02'6 4.9
2018-Jun-18 11:16N 48°40' W 002°02'1 2.3
2018-Jun-18 10:54N 48°39' W 002°02'1 0.4
2018-Jun-18 09:23N 48°39' W 002°02'0 0.0
2018-Jun-17 18:43N 48°39' W 002°02'1 0.1
2018-Jun-17 04:52N 48°38' W 002°01'0 0.0
2018-Jun-17 04:28N 48°38' W 002°01'0 0.0
2018-Jun-17 03:58N 48°38' W 002°01'0 0.0
2018-Jun-17 03:13N 48°38' W 002°01'0 0.0
2018-Jun-17 02:49N 48°38' W 002°01'0 0.0
2018-Jun-17 02:25N 48°38' W 002°01'0 0.0
2018-Jun-17 01:31N 48°38' W 002°01'0 0.0
2018-Jun-17 01:16N 48°38' W 002°01'0 0.0
2018-Jun-17 00:37N 48°38' W 002°01'0 0.0
2018-Jun-17 00:16N 48°38' W 002°01'0 0.0
2018-Jun-16 23:52N 48°38' W 002°01'0 0.0
2018-Jun-16 23:22N 48°38' W 002°01'0 0.0
2018-Jun-16 22:58N 48°38' W 002°01'15 0.5
2018-Jun-15 14:09N 48°41' W 002°23'  
2018-Jun-10 12:01N 50°20' W 004°08'0 4.8
2018-Jun-10 11:59N 50°20' W 004°08'  
Track history (hours):
 
Tides and Currents Weather Stations Pressure Air Temp Water Temp Dewpoint Dewpoint Depression Visibility Wind Speed Wind Dir Waves Ship Positions

Maeva Solo Sailor

Last reported at 2018-Jun-19 19:04 UTC. Time now 2018-Jun-19 20:20 UTC.
Position N 48°44' W 002°34'.

Length 9 m.

Type: Sailing vessel. MMSI: 227165040.

Date/timePositionNaut miles runAvg speedWind from/ knotsBaromVisibWave heightAir tempDewpointWater temp
2018-Jun-19 19:04N 48°44' W 002°34'1 5.9
2018-Jun-19 18:55N 48°45' W 002°34'3 5.8
2018-Jun-19 18:28N 48°47' W 002°32'3 5.6
2018-Jun-19 18:00N 48°49' W 002°30'19 0.6
2018-Jun-18 12:31N 48°46' W 002°02'0 4.6
2018-Jun-18 12:28N 48°46' W 002°02'6 4.9
2018-Jun-18 11:16N 48°40' W 002°02'1 2.3
2018-Jun-18 10:54N 48°39' W 002°02'1 0.4
2018-Jun-18 09:23N 48°39' W 002°02'0 0.0
2018-Jun-17 18:43N 48°39' W 002°02'1 0.1
2018-Jun-17 04:52N 48°38' W 002°01'0 0.0
2018-Jun-17 04:28N 48°38' W 002°01'0 0.0
2018-Jun-17 03:58N 48°38' W 002°01'0 0.0
2018-Jun-17 03:13N 48°38' W 002°01'0 0.0
2018-Jun-17 02:49N 48°38' W 002°01'0 0.0
2018-Jun-17 02:25N 48°38' W 002°01'0 0.0
2018-Jun-17 01:31N 48°38' W 002°01'0 0.0
2018-Jun-17 01:16N 48°38' W 002°01'0 0.0
2018-Jun-17 00:37N 48°38' W 002°01'0 0.0
2018-Jun-17 00:16N 48°38' W 002°01'0 0.0
2018-Jun-16 23:52N 48°38' W 002°01'0 0.0
2018-Jun-16 23:22N 48°38' W 002°01'0 0.0
2018-Jun-16 22:58N 48°38' W 002°01'15 0.5
2018-Jun-15 14:09N 48°41' W 002°23'  
2018-Jun-10 12:01N 50°20' W 004°08'0 4.8
2018-Jun-10 11:59N 50°20' W 004°08'  

Dump ship's entire track history